sensor_id;sensor_type;location;lat;lon;timestamp;temperature;humidity
49124;DHT22;48506;48.202;16.274;2023-10-13T00:00:34;18.70;96.50
49124;DHT22;48506;48.202;16.274;2023-10-13T00:03:09;18.70;96.60
49124;DHT22;48506;48.202;16.274;2023-10-13T00:05:42;18.70;96.70
49124;DHT22;48506;48.202;16.274;2023-10-13T00:08:09;18.70;96.60
49124;DHT22;48506;48.202;16.274;2023-10-13T00:10:36;18.70;96.60
49124;DHT22;48506;48.202;16.274;2023-10-13T00:13:02;18.60;97.00
49124;DHT22;48506;48.202;16.274;2023-10-13T00:15:40;18.50;97.00
49124;DHT22;48506;48.202;16.274;2023-10-13T00:18:12;18.50;97.10
49124;DHT22;48506;48.202;16.274;2023-10-13T00:20:40;18.50;97.10
49124;DHT22;48506;48.202;16.274;2023-10-13T00:23:12;18.40;97.20
49124;DHT22;48506;48.202;16.274;2023-10-13T00:25:39;18.40;97.30
49124;DHT22;48506;48.202;16.274;2023-10-13T00:28:18;18.40;97.50
49124;DHT22;48506;48.202;16.274;2023-10-13T00:30:51;18.40;97.60
49124;DHT22;48506;48.202;16.274;2023-10-13T00:33:26;18.40;97.50
49124;DHT22;48506;48.202;16.274;2023-10-13T00:35:58;18.40;97.80
49124;DHT22;48506;48.202;16.274;2023-10-13T00:38:24;18.40;97.90
49124;DHT22;48506;48.202;16.274;2023-10-13T00:40:53;18.40;97.90
49124;DHT22;48506;48.202;16.274;2023-10-13T00:43:21;18.40;98.00
49124;DHT22;48506;48.202;16.274;2023-10-13T00:48:25;18.30;98.10
49124;DHT22;48506;48.202;16.274;2023-10-13T00:51:02;18.40;98.10
49124;DHT22;48506;48.202;16.274;2023-10-13T00:53:36;18.40;98.10
49124;DHT22;48506;48.202;16.274;2023-10-13T00:56:07;18.40;98.30
49124;DHT22;48506;48.202;16.274;2023-10-13T00:58:34;18.50;98.20
49124;DHT22;48506;48.202;16.274;2023-10-13T01:01:03;18.40;98.30
49124;DHT22;48506;48.202;16.274;2023-10-13T01:03:51;18.40;98.50
49124;DHT22;48506;48.202;16.274;2023-10-13T01:06:22;18.40;98.70
49124;DHT22;48506;48.202;16.274;2023-10-13T01:09:08;18.30;99.00
49124;DHT22;48506;48.202;16.274;2023-10-13T01:11:46;18.30;99.30
49124;DHT22;48506;48.202;16.274;2023-10-13T01:14:14;18.30;99.60
49124;DHT22;48506;48.202;16.274;2023-10-13T01:16:44;18.20;99.80
49124;DHT22;48506;48.202;16.274;2023-10-13T01:19:14;18.20;99.90
49124;DHT22;48506;48.202;16.274;2023-10-13T01:21:44;18.10;99.90
49124;DHT22;48506;48.202;16.274;2023-10-13T01:24:11;18.00;99.90
49124;DHT22;48506;48.202;16.274;2023-10-13T01:26:39;18.00;99.90
49124;DHT22;48506;48.202;16.274;2023-10-13T01:29:06;17.90;99.90
49124;DHT22;48506;48.202;16.274;2023-10-13T01:31:42;17.90;99.90
49124;DHT22;48506;48.202;16.274;2023-10-13T01:34:20;17.80;99.90
49124;DHT22;48506;48.202;16.274;2023-10-13T01:36:50;17.80;99.90
49124;DHT22;48506;48.202;16.274;2023-10-13T01:39:19;17.70;99.90
49124;DHT22;48506;48.202;16.274;2023-10-13T01:41:47;17.80;99.90
49124;DHT22;48506;48.202;16.274;2023-10-13T01:44:29;17.80;99.90
49124;DHT22;48506;48.202;16.274;2023-10-13T01:46:59;17.80;99.90
49124;DHT22;48506;48.202;16.274;2023-10-13T01:49:35;17.80;99.90
49124;DHT22;48506;48.202;16.274;2023-10-13T01:52:13;17.80;99.90
49124;DHT22;48506;48.202;16.274;2023-10-13T01:54:46;17.80;99.90
49124;DHT22;48506;48.202;16.274;2023-10-13T01:57:12;17.80;99.90
49124;DHT22;48506;48.202;16.274;2023-10-13T01:59:45;17.70;99.90
49124;DHT22;48506;48.202;16.274;2023-10-13T02:02:14;17.80;99.90
49124;DHT22;48506;48.202;16.274;2023-10-13T02:04:42;17.80;99.90
49124;DHT22;48506;48.202;16.274;2023-10-13T02:07:15;17.80;99.90
49124;DHT22;48506;48.202;16.274;2023-10-13T02:09:42;17.80;99.90
49124;DHT22;48506;48.202;16.274;2023-10-13T02:12:11;17.80;99.90
49124;DHT22;48506;48.202;16.274;2023-10-13T02:14:38;17.90;99.90
49124;DHT22;48506;48.202;16.274;2023-10-13T02:17:04;17.90;99.90
49124;DHT22;48506;48.202;16.274;2023-10-13T02:19:42;17.90;99.90
49124;DHT22;48506;48.202;16.274;2023-10-13T02:22:13;17.90;99.90
49124;DHT22;48506;48.202;16.274;2023-10-13T02:24:58;17.90;99.90
49124;DHT22;48506;48.202;16.274;2023-10-13T02:27:27;17.90;99.90
49124;DHT22;48506;48.202;16.274;2023-10-13T02:29:54;17.90;99.90
49124;DHT22;48506;48.202;16.274;2023-10-13T02:32:25;17.90;99.90
49124;DHT22;48506;48.202;16.274;2023-10-13T02:34:52;17.90;99.90
49124;DHT22;48506;48.202;16.274;2023-10-13T02:37:23;17.90;99.90
49124;DHT22;48506;48.202;16.274;2023-10-13T02:39:49;17.90;99.90
49124;DHT22;48506;48.202;16.274;2023-10-13T02:42:15;17.90;99.90
49124;DHT22;48506;48.202;16.274;2023-10-13T02:44:51;17.80;99.90
49124;DHT22;48506;48.202;16.274;2023-10-13T02:47:17;17.80;99.90
49124;DHT22;48506;48.202;16.274;2023-10-13T02:49:45;17.80;99.90
49124;DHT22;48506;48.202;16.274;2023-10-13T02:52:13;17.80;99.90
49124;DHT22;48506;48.202;16.274;2023-10-13T02:54:40;17.80;99.90
49124;DHT22;48506;48.202;16.274;2023-10-13T02:57:13;17.80;99.90
49124;DHT22;48506;48.202;16.274;2023-10-13T02:59:42;17.70;99.90
49124;DHT22;48506;48.202;16.274;2023-10-13T03:02:21;17.80;99.90
49124;DHT22;48506;48.202;16.274;2023-10-13T03:04:55;17.80;99.90
49124;DHT22;48506;48.202;16.274;2023-10-13T03:07:42;17.70;99.90
49124;DHT22;48506;48.202;16.274;2023-10-13T03:10:10;17.70;99.90
49124;DHT22;48506;48.202;16.274;2023-10-13T03:12:38;17.70;99.90
49124;DHT22;48506;48.202;16.274;2023-10-13T03:15:06;17.70;99.90
49124;DHT22;48506;48.202;16.274;2023-10-13T03:17:38;17.70;99.90
49124;DHT22;48506;48.202;16.274;2023-10-13T03:20:13;17.80;99.90
49124;DHT22;48506;48.202;16.274;2023-10-13T03:22:44;17.70;99.90
49124;DHT22;48506;48.202;16.274;2023-10-13T03:25:14;17.70;99.90
49124;DHT22;48506;48.202;16.274;2023-10-13T03:27:50;17.80;99.90
49124;DHT22;48506;48.202;16.274;2023-10-13T03:30:17;17.70;99.90
49124;DHT22;48506;48.202;16.274;2023-10-13T03:32:43;17.70;99.90
49124;DHT22;48506;48.202;16.274;2023-10-13T03:35:12;17.70;99.90
49124;DHT22;48506;48.202;16.274;2023-10-13T03:37:54;17.70;99.90
49124;DHT22;48506;48.202;16.274;2023-10-13T03:40:21;17.60;99.90
49124;DHT22;48506;48.202;16.274;2023-10-13T03:45:27;17.70;99.90
49124;DHT22;48506;48.202;16.274;2023-10-13T03:47:54;17.70;99.90
49124;DHT22;48506;48.202;16.274;2023-10-13T03:50:20;17.70;99.90
49124;DHT22;48506;48.202;16.274;2023-10-13T03:52:59;17.70;99.90
49124;DHT22;48506;48.202;16.274;2023-10-13T03:55:26;17.70;99.90
49124;DHT22;48506;48.202;16.274;2023-10-13T03:57:53;17.70;99.90
49124;DHT22;48506;48.202;16.274;2023-10-13T04:00:21;17.70;99.90
49124;DHT22;48506;48.202;16.274;2023-10-13T04:02:53;17.70;99.90
49124;DHT22;48506;48.202;16.274;2023-10-13T04:05:31;17.70;99.90
49124;DHT22;48506;48.202;16.274;2023-10-13T04:08:21;17.70;99.90
49124;DHT22;48506;48.202;16.274;2023-10-13T04:10:55;17.70;99.90
49124;DHT22;48506;48.202;16.274;2023-10-13T04:13:21;17.70;99.90
49124;DHT22;48506;48.202;16.274;2023-10-13T04:16:09;17.70;99.90
49124;DHT22;48506;48.202;16.274;2023-10-13T04:19:02;17.70;99.90
49124;DHT22;48506;48.202;16.274;2023-10-13T04:21:28;17.70;99.90
49124;DHT22;48506;48.202;16.274;2023-10-13T04:24:26;17.60;99.90
49124;DHT22;48506;48.202;16.274;2023-10-13T04:27:11;17.60;99.90
49124;DHT22;48506;48.202;16.274;2023-10-13T04:29:55;17.60;99.90
49124;DHT22;48506;48.202;16.274;2023-10-13T04:32:37;17.70;99.90
49124;DHT22;48506;48.202;16.274;2023-10-13T04:35:12;17.60;99.90
49124;DHT22;48506;48.202;16.274;2023-10-13T04:37:38;17.60;99.90
49124;DHT22;48506;48.202;16.274;2023-10-13T04:40:21;17.70;99.90
49124;DHT22;48506;48.202;16.274;2023-10-13T04:42:51;17.80;99.90
49124;DHT22;48506;48.202;16.274;2023-10-13T04:45:23;17.70;99.90
49124;DHT22;48506;48.202;16.274;2023-10-13T04:48:01;17.70;99.90
49124;DHT22;48506;48.202;16.274;2023-10-13T04:50:47;17.80;99.90
49124;DHT22;48506;48.202;16.274;2023-10-13T04:53:18;17.70;99.90
49124;DHT22;48506;48.202;16.274;2023-10-13T04:56:13;17.70;99.90
49124;DHT22;48506;48.202;16.274;2023-10-13T04:58:58;17.70;99.90
49124;DHT22;48506;48.202;16.274;2023-10-13T05:01:44;17.80;99.90
49124;DHT22;48506;48.202;16.274;2023-10-13T05:04:22;17.70;99.90
49124;DHT22;48506;48.202;16.274;2023-10-13T05:07:05;17.60;99.90
49124;DHT22;48506;48.202;16.274;2023-10-13T05:09:50;17.60;99.90
49124;DHT22;48506;48.202;16.274;2023-10-13T05:12:35;17.60;99.90
49124;DHT22;48506;48.202;16.274;2023-10-13T05:15:20;17.60;99.90
49124;DHT22;48506;48.202;16.274;2023-10-13T05:18:05;17.60;99.90
49124;DHT22;48506;48.202;16.274;2023-10-13T05:20:50;17.60;99.90
49124;DHT22;48506;48.202;16.274;2023-10-13T05:23:38;17.60;99.90
49124;DHT22;48506;48.202;16.274;2023-10-13T05:26:22;17.60;99.90
49124;DHT22;48506;48.202;16.274;2023-10-13T05:29:07;17.60;99.90
49124;DHT22;48506;48.202;16.274;2023-10-13T05:31:52;17.60;99.90
49124;DHT22;48506;48.202;16.274;2023-10-13T05:34:36;17.70;99.90
49124;DHT22;48506;48.202;16.274;2023-10-13T05:37:21;17.70;99.90
49124;DHT22;48506;48.202;16.274;2023-10-13T05:40:07;17.70;99.90
49124;DHT22;48506;48.202;16.274;2023-10-13T05:42:51;17.70;99.90
49124;DHT22;48506;48.202;16.274;2023-10-13T05:45:38;17.70;99.90
49124;DHT22;48506;48.202;16.274;2023-10-13T05:48:27;17.70;99.90
49124;DHT22;48506;48.202;16.274;2023-10-13T05:51:11;17.70;99.90
49124;DHT22;48506;48.202;16.274;2023-10-13T05:53:56;17.70;99.90
49124;DHT22;48506;48.202;16.274;2023-10-13T05:56:47;17.70;99.90
49124;DHT22;48506;48.202;16.274;2023-10-13T05:59:33;17.70;99.90
49124;DHT22;48506;48.202;16.274;2023-10-13T06:02:19;17.70;99.90
49124;DHT22;48506;48.202;16.274;2023-10-13T06:05:11;17.60;99.90
49124;DHT22;48506;48.202;16.274;2023-10-13T06:07:56;17.60;99.90
49124;DHT22;48506;48.202;16.274;2023-10-13T06:10:41;17.60;99.90
49124;DHT22;48506;48.202;16.274;2023-10-13T06:13:26;17.60;99.90
49124;DHT22;48506;48.202;16.274;2023-10-13T06:16:28;17.60;99.90
49124;DHT22;48506;48.202;16.274;2023-10-13T06:19:13;17.70;99.90
49124;DHT22;48506;48.202;16.274;2023-10-13T06:21:57;17.70;99.90
49124;DHT22;48506;48.202;16.274;2023-10-13T06:24:42;17.70;99.90
49124;DHT22;48506;48.202;16.274;2023-10-13T06:27:26;17.70;99.90
49124;DHT22;48506;48.202;16.274;2023-10-13T06:30:11;17.60;99.90
49124;DHT22;48506;48.202;16.274;2023-10-13T06:32:38;17.70;99.90
49124;DHT22;48506;48.202;16.274;2023-10-13T06:35:07;17.60;99.90
49124;DHT22;48506;48.202;16.274;2023-10-13T06:37:33;17.60;99.90
49124;DHT22;48506;48.202;16.274;2023-10-13T06:40:01;17.60;99.90
49124;DHT22;48506;48.202;16.274;2023-10-13T06:42:33;17.70;99.90
49124;DHT22;48506;48.202;16.274;2023-10-13T06:45:09;17.70;99.90
49124;DHT22;48506;48.202;16.274;2023-10-13T06:47:36;17.70;99.90
49124;DHT22;48506;48.202;16.274;2023-10-13T06:50:09;17.70;99.90
49124;DHT22;48506;48.202;16.274;2023-10-13T06:52:44;17.80;99.90
49124;DHT22;48506;48.202;16.274;2023-10-13T06:55:11;17.90;99.90
49124;DHT22;48506;48.202;16.274;2023-10-13T06:57:57;18.00;99.90
49124;DHT22;48506;48.202;16.274;2023-10-13T07:00:26;18.10;99.90
49124;DHT22;48506;48.202;16.274;2023-10-13T07:02:59;18.20;99.90
49124;DHT22;48506;48.202;16.274;2023-10-13T07:05:39;18.40;99.90
49124;DHT22;48506;48.202;16.274;2023-10-13T07:08:07;18.50;99.90
49124;DHT22;48506;48.202;16.274;2023-10-13T07:10:35;18.60;99.90
49124;DHT22;48506;48.202;16.274;2023-10-13T07:13:14;18.80;99.90
49124;DHT22;48506;48.202;16.274;2023-10-13T07:15:43;18.90;99.90
49124;DHT22;48506;48.202;16.274;2023-10-13T07:18:13;19.00;99.90
49124;DHT22;48506;48.202;16.274;2023-10-13T07:20:41;19.00;99.90
49124;DHT22;48506;48.202;16.274;2023-10-13T07:23:12;19.10;99.90
49124;DHT22;48506;48.202;16.274;2023-10-13T07:25:56;19.20;99.90
49124;DHT22;48506;48.202;16.274;2023-10-13T07:28:30;19.30;99.90
49124;DHT22;48506;48.202;16.274;2023-10-13T07:31:04;19.30;99.90
49124;DHT22;48506;48.202;16.274;2023-10-13T07:33:30;19.40;99.90
49124;DHT22;48506;48.202;16.274;2023-10-13T07:36:01;19.50;99.90
49124;DHT22;48506;48.202;16.274;2023-10-13T07:38:27;19.50;99.90
49124;DHT22;48506;48.202;16.274;2023-10-13T07:40:57;19.60;99.90
49124;DHT22;48506;48.202;16.274;2023-10-13T07:43:33;19.80;99.90
49124;DHT22;48506;48.202;16.274;2023-10-13T07:45:59;20.00;99.90
49124;DHT22;48506;48.202;16.274;2023-10-13T07:48:26;20.30;99.90
49124;DHT22;48506;48.202;16.274;2023-10-13T07:51:06;20.50;99.90
49124;DHT22;48506;48.202;16.274;2023-10-13T07:53:42;20.70;99.90
49124;DHT22;48506;48.202;16.274;2023-10-13T07:56:09;20.80;99.90
49124;DHT22;48506;48.202;16.274;2023-10-13T07:58:39;20.90;99.90
49124;DHT22;48506;48.202;16.274;2023-10-13T08:01:13;21.10;99.90
49124;DHT22;48506;48.202;16.274;2023-10-13T08:03:44;21.20;99.90
49124;DHT22;48506;48.202;16.274;2023-10-13T08:06:13;21.30;99.90
49124;DHT22;48506;48.202;16.274;2023-10-13T08:08:40;21.40;99.90
49124;DHT22;48506;48.202;16.274;2023-10-13T08:11:11;21.60;99.90
49124;DHT22;48506;48.202;16.274;2023-10-13T08:13:43;21.80;99.90
49124;DHT22;48506;48.202;16.274;2023-10-13T08:16:13;21.90;99.90
49124;DHT22;48506;48.202;16.274;2023-10-13T08:18:50;22.00;99.90
49124;DHT22;48506;48.202;16.274;2023-10-13T08:21:17;22.00;99.40
49124;DHT22;48506;48.202;16.274;2023-10-13T08:23:52;22.10;99.30
49124;DHT22;48506;48.202;16.274;2023-10-13T08:26:21;22.30;99.00
49124;DHT22;48506;48.202;16.274;2023-10-13T08:29:04;22.40;98.70
49124;DHT22;48506;48.202;16.274;2023-10-13T08:31:51;22.60;98.40
49124;DHT22;48506;48.202;16.274;2023-10-13T08:34:30;22.70;97.60
49124;DHT22;48506;48.202;16.274;2023-10-13T08:37:07;22.80;96.90
49124;DHT22;48506;48.202;16.274;2023-10-13T08:39:50;23.00;96.60
49124;DHT22;48506;48.202;16.274;2023-10-13T08:45:09;23.30;95.60
49124;DHT22;48506;48.202;16.274;2023-10-13T08:47:55;23.50;94.80
49124;DHT22;48506;48.202;16.274;2023-10-13T08:50:51;23.60;93.90
49124;DHT22;48506;48.202;16.274;2023-10-13T08:53:18;23.70;92.20
49124;DHT22;48506;48.202;16.274;2023-10-13T08:58:36;24.00;91.60
49124;DHT22;48506;48.202;16.274;2023-10-13T09:01:36;24.20;90.70
49124;DHT22;48506;48.202;16.274;2023-10-13T09:04:19;24.40;92.10
49124;DHT22;48506;48.202;16.274;2023-10-13T09:06:55;24.60;91.90
49124;DHT22;48506;48.202;16.274;2023-10-13T09:12:25;24.70;91.30
49124;DHT22;48506;48.202;16.274;2023-10-13T09:15:03;24.90;91.30
49124;DHT22;48506;48.202;16.274;2023-10-13T09:17:52;25.10;91.10
49124;DHT22;48506;48.202;16.274;2023-10-13T09:20:38;25.30;88.80
49124;DHT22;48506;48.202;16.274;2023-10-13T09:23:12;25.30;87.70
49124;DHT22;48506;48.202;16.274;2023-10-13T09:25:53;25.40;90.20
49124;DHT22;48506;48.202;16.274;2023-10-13T09:28:35;25.50;87.20
49124;DHT22;48506;48.202;16.274;2023-10-13T09:31:03;25.60;87.00
49124;DHT22;48506;48.202;16.274;2023-10-13T09:33:33;25.80;86.50
49124;DHT22;48506;48.202;16.274;2023-10-13T09:36:05;25.80;86.70
49124;DHT22;48506;48.202;16.274;2023-10-13T09:38:39;26.00;88.20
49124;DHT22;48506;48.202;16.274;2023-10-13T09:41:07;26.20;84.80
49124;DHT22;48506;48.202;16.274;2023-10-13T09:44:00;26.30;84.10
49124;DHT22;48506;48.202;16.274;2023-10-13T09:46:27;26.40;79.80
49124;DHT22;48506;48.202;16.274;2023-10-13T09:49:05;26.50;79.40
49124;DHT22;48506;48.202;16.274;2023-10-13T09:51:34;26.50;78.90
49124;DHT22;48506;48.202;16.274;2023-10-13T09:54:11;26.50;77.00
49124;DHT22;48506;48.202;16.274;2023-10-13T09:56:59;26.60;79.40
49124;DHT22;48506;48.202;16.274;2023-10-13T09:59:35;26.70;78.50
49124;DHT22;48506;48.202;16.274;2023-10-13T10:02:08;26.90;78.10
49124;DHT22;48506;48.202;16.274;2023-10-13T10:04:36;27.10;77.20
49124;DHT22;48506;48.202;16.274;2023-10-13T10:07:27;27.10;76.80
49124;DHT22;48506;48.202;16.274;2023-10-13T10:09:59;27.20;73.60
49124;DHT22;48506;48.202;16.274;2023-10-13T10:15:26;27.40;75.70
49124;DHT22;48506;48.202;16.274;2023-10-13T10:17:56;27.50;72.60
49124;DHT22;48506;48.202;16.274;2023-10-13T10:20:33;27.50;72.60
49124;DHT22;48506;48.202;16.274;2023-10-13T10:23:08;27.50;72.50
49124;DHT22;48506;48.202;16.274;2023-10-13T10:25:48;27.70;72.80
49124;DHT22;48506;48.202;16.274;2023-10-13T10:28:17;27.80;72.60
49124;DHT22;48506;48.202;16.274;2023-10-13T10:30:45;27.90;72.00
49124;DHT22;48506;48.202;16.274;2023-10-13T10:33:12;28.00;72.00
49124;DHT22;48506;48.202;16.274;2023-10-13T10:35:43;28.10;70.70
49124;DHT22;48506;48.202;16.274;2023-10-13T10:38:12;28.10;71.30
49124;DHT22;48506;48.202;16.274;2023-10-13T10:40:51;28.20;71.40
49124;DHT22;48506;48.202;16.274;2023-10-13T10:43:29;28.40;70.40
49124;DHT22;48506;48.202;16.274;2023-10-13T10:46:10;28.40;69.70
49124;DHT22;48506;48.202;16.274;2023-10-13T10:48:38;28.50;69.90
49124;DHT22;48506;48.202;16.274;2023-10-13T10:51:12;28.70;70.00
49124;DHT22;48506;48.202;16.274;2023-10-13T10:53:48;28.70;71.20
49124;DHT22;48506;48.202;16.274;2023-10-13T10:56:18;28.90;69.40
49124;DHT22;48506;48.202;16.274;2023-10-13T10:58:55;28.80;66.60
49124;DHT22;48506;48.202;16.274;2023-10-13T11:01:23;28.70;70.00
49124;DHT22;48506;48.202;16.274;2023-10-13T11:04:00;28.80;69.10
49124;DHT22;48506;48.202;16.274;2023-10-13T11:06:47;29.00;68.80
49124;DHT22;48506;48.202;16.274;2023-10-13T11:09:14;29.20;68.00
49124;DHT22;48506;48.202;16.274;2023-10-13T11:11:53;29.40;67.40
49124;DHT22;48506;48.202;16.274;2023-10-13T11:14:24;29.50;67.60
49124;DHT22;48506;48.202;16.274;2023-10-13T11:16:52;29.60;66.50
49124;DHT22;48506;48.202;16.274;2023-10-13T11:22:15;29.70;66.10
49124;DHT22;48506;48.202;16.274;2023-10-13T11:25:02;29.80;67.00
49124;DHT22;48506;48.202;16.274;2023-10-13T11:27:39;29.90;66.10
49124;DHT22;48506;48.202;16.274;2023-10-13T11:30:12;30.00;65.00
49124;DHT22;48506;48.202;16.274;2023-10-13T11:32:42;30.00;63.70
49124;DHT22;48506;48.202;16.274;2023-10-13T11:35:09;30.00;64.60
49124;DHT22;48506;48.202;16.274;2023-10-13T11:37:53;30.00;65.20
49124;DHT22;48506;48.202;16.274;2023-10-13T11:40:32;30.00;64.80
49124;DHT22;48506;48.202;16.274;2023-10-13T11:43:11;30.10;63.20
49124;DHT22;48506;48.202;16.274;2023-10-13T11:45:47;30.00;62.70
49124;DHT22;48506;48.202;16.274;2023-10-13T11:48:32;30.00;62.30
49124;DHT22;48506;48.202;16.274;2023-10-13T11:51:06;30.00;63.80
49124;DHT22;48506;48.202;16.274;2023-10-13T11:53:36;30.00;63.40
49124;DHT22;48506;48.202;16.274;2023-10-13T11:56:09;30.10;64.10
49124;DHT22;48506;48.202;16.274;2023-10-13T11:58:36;30.20;63.70
49124;DHT22;48506;48.202;16.274;2023-10-13T12:01:03;30.30;63.70
49124;DHT22;48506;48.202;16.274;2023-10-13T12:03:45;30.30;61.90
49124;DHT22;48506;48.202;16.274;2023-10-13T12:06:32;30.30;61.20
49124;DHT22;48506;48.202;16.274;2023-10-13T12:09:10;30.30;61.40
49124;DHT22;48506;48.202;16.274;2023-10-13T12:11:39;30.30;62.20
49124;DHT22;48506;48.202;16.274;2023-10-13T12:14:08;30.40;60.70
49124;DHT22;48506;48.202;16.274;2023-10-13T12:16:57;30.40;58.40
49124;DHT22;48506;48.202;16.274;2023-10-13T12:19:30;30.30;59.50
49124;DHT22;48506;48.202;16.274;2023-10-13T12:21:58;30.30;60.30
49124;DHT22;48506;48.202;16.274;2023-10-13T12:24:44;30.40;59.40
49124;DHT22;48506;48.202;16.274;2023-10-13T12:27:19;30.50;61.20
49124;DHT22;48506;48.202;16.274;2023-10-13T12:29:49;30.60;60.50
49124;DHT22;48506;48.202;16.274;2023-10-13T12:32:20;30.90;60.10
49124;DHT22;48506;48.202;16.274;2023-10-13T12:34:56;31.10;59.00
49124;DHT22;48506;48.202;16.274;2023-10-13T12:37:24;31.20;59.10
49124;DHT22;48506;48.202;16.274;2023-10-13T12:40:04;31.30;57.70
49124;DHT22;48506;48.202;16.274;2023-10-13T12:42:49;31.20;59.20
49124;DHT22;48506;48.202;16.274;2023-10-13T12:45:41;31.20;58.30
49124;DHT22;48506;48.202;16.274;2023-10-13T12:48:26;31.20;59.20
49124;DHT22;48506;48.202;16.274;2023-10-13T12:51:11;31.30;59.50
49124;DHT22;48506;48.202;16.274;2023-10-13T12:53:57;31.30;59.20
49124;DHT22;48506;48.202;16.274;2023-10-13T12:56:40;31.30;58.70
49124;DHT22;48506;48.202;16.274;2023-10-13T12:59:10;31.10;58.50
49124;DHT22;48506;48.202;16.274;2023-10-13T13:01:40;31.10;59.40
49124;DHT22;48506;48.202;16.274;2023-10-13T13:04:10;31.20;60.00
49124;DHT22;48506;48.202;16.274;2023-10-13T13:06:49;31.20;59.40
49124;DHT22;48506;48.202;16.274;2023-10-13T13:09:16;31.10;59.60
49124;DHT22;48506;48.202;16.274;2023-10-13T13:11:54;31.00;59.80
49124;DHT22;48506;48.202;16.274;2023-10-13T13:14:24;30.90;60.40
49124;DHT22;48506;48.202;16.274;2023-10-13T13:16:56;30.80;60.40
49124;DHT22;48506;48.202;16.274;2023-10-13T13:19:39;30.80;60.50
49124;DHT22;48506;48.202;16.274;2023-10-13T13:22:05;30.70;60.60
49124;DHT22;48506;48.202;16.274;2023-10-13T13:24:40;30.70;61.40
49124;DHT22;48506;48.202;16.274;2023-10-13T13:27:16;30.70;60.80
49124;DHT22;48506;48.202;16.274;2023-10-13T13:29:48;30.70;60.40
49124;DHT22;48506;48.202;16.274;2023-10-13T13:32:14;30.60;60.90
49124;DHT22;48506;48.202;16.274;2023-10-13T13:34:52;30.60;61.40
49124;DHT22;48506;48.202;16.274;2023-10-13T13:37:25;30.60;61.50
49124;DHT22;48506;48.202;16.274;2023-10-13T13:39:53;30.60;61.70
49124;DHT22;48506;48.202;16.274;2023-10-13T13:42:19;30.70;60.60
49124;DHT22;48506;48.202;16.274;2023-10-13T13:44:46;30.60;60.70
49124;DHT22;48506;48.202;16.274;2023-10-13T13:47:13;30.70;59.90
49124;DHT22;48506;48.202;16.274;2023-10-13T13:49:43;30.80;60.30
49124;DHT22;48506;48.202;16.274;2023-10-13T13:52:18;30.80;60.70
49124;DHT22;48506;48.202;16.274;2023-10-13T13:54:48;30.80;60.10
49124;DHT22;48506;48.202;16.274;2023-10-13T13:57:14;30.80;59.10
49124;DHT22;48506;48.202;16.274;2023-10-13T13:59:40;30.80;60.00
49124;DHT22;48506;48.202;16.274;2023-10-13T14:02:11;30.80;59.90
49124;DHT22;48506;48.202;16.274;2023-10-13T14:04:47;30.80;61.00
49124;DHT22;48506;48.202;16.274;2023-10-13T14:07:17;30.70;60.80
49124;DHT22;48506;48.202;16.274;2023-10-13T14:09:45;30.60;60.90
49124;DHT22;48506;48.202;16.274;2023-10-13T14:12:18;30.50;61.70
49124;DHT22;48506;48.202;16.274;2023-10-13T14:15:17;30.50;60.90
49124;DHT22;48506;48.202;16.274;2023-10-13T14:17:49;30.40;60.80
49124;DHT22;48506;48.202;16.274;2023-10-13T14:20:15;30.30;60.00
49124;DHT22;48506;48.202;16.274;2023-10-13T14:22:45;30.20;60.00
49124;DHT22;48506;48.202;16.274;2023-10-13T14:25:14;30.20;59.50
49124;DHT22;48506;48.202;16.274;2023-10-13T14:27:43;30.10;60.40
49124;DHT22;48506;48.202;16.274;2023-10-13T14:30:09;30.10;61.20
49124;DHT22;48506;48.202;16.274;2023-10-13T14:32:35;30.10;61.10
49124;DHT22;48506;48.202;16.274;2023-10-13T14:35:06;30.00;61.30
49124;DHT22;48506;48.202;16.274;2023-10-13T14:37:40;30.00;60.90
49124;DHT22;48506;48.202;16.274;2023-10-13T14:40:07;29.90;61.80
49124;DHT22;48506;48.202;16.274;2023-10-13T14:42:39;29.90;61.80
49124;DHT22;48506;48.202;16.274;2023-10-13T14:45:07;29.90;62.90
49124;DHT22;48506;48.202;16.274;2023-10-13T14:47:42;29.80;62.00
49124;DHT22;48506;48.202;16.274;2023-10-13T14:50:09;29.80;62.20
49124;DHT22;48506;48.202;16.274;2023-10-13T14:52:48;29.80;62.50
49124;DHT22;48506;48.202;16.274;2023-10-13T14:55:14;29.90;62.20
49124;DHT22;48506;48.202;16.274;2023-10-13T14:57:50;30.00;61.50
49124;DHT22;48506;48.202;16.274;2023-10-13T15:00:17;30.00;61.90
49124;DHT22;48506;48.202;16.274;2023-10-13T15:02:51;30.00;62.00
49124;DHT22;48506;48.202;16.274;2023-10-13T15:05:18;30.10;61.70
49124;DHT22;48506;48.202;16.274;2023-10-13T15:07:45;30.30;62.00
49124;DHT22;48506;48.202;16.274;2023-10-13T15:10:13;30.70;60.70
49124;DHT22;48506;48.202;16.274;2023-10-13T15:12:44;31.10;60.60
49124;DHT22;48506;48.202;16.274;2023-10-13T15:15:14;31.10;60.40
49124;DHT22;48506;48.202;16.274;2023-10-13T15:17:43;30.90;61.50
49124;DHT22;48506;48.202;16.274;2023-10-13T15:20:09;30.90;61.30
49124;DHT22;48506;48.202;16.274;2023-10-13T15:22:45;31.20;60.20
49124;DHT22;48506;48.202;16.274;2023-10-13T15:25:13;31.60;59.60
49124;DHT22;48506;48.202;16.274;2023-10-13T15:28:01;31.60;58.80
49124;DHT22;48506;48.202;16.274;2023-10-13T15:30:34;31.40;58.70
49124;DHT22;48506;48.202;16.274;2023-10-13T15:33:19;30.70;58.80
49124;DHT22;48506;48.202;16.274;2023-10-13T15:35:45;30.10;60.20
49124;DHT22;48506;48.202;16.274;2023-10-13T15:38:11;29.80;61.30
49124;DHT22;48506;48.202;16.274;2023-10-13T15:40:42;29.40;62.30
49124;DHT22;48506;48.202;16.274;2023-10-13T15:43:09;29.00;63.00
49124;DHT22;48506;48.202;16.274;2023-10-13T15:45:34;28.60;63.50
49124;DHT22;48506;48.202;16.274;2023-10-13T15:48:09;28.20;64.10
49124;DHT22;48506;48.202;16.274;2023-10-13T15:50:41;27.90;65.10
49124;DHT22;48506;48.202;16.274;2023-10-13T15:53:08;27.60;65.90
49124;DHT22;48506;48.202;16.274;2023-10-13T15:55:38;27.40;65.90
49124;DHT22;48506;48.202;16.274;2023-10-13T15:58:07;27.10;66.70
49124;DHT22;48506;48.202;16.274;2023-10-13T16:00:37;26.90;67.30
49124;DHT22;48506;48.202;16.274;2023-10-13T16:03:04;26.70;67.40
49124;DHT22;48506;48.202;16.274;2023-10-13T16:05:38;26.60;67.90
49124;DHT22;48506;48.202;16.274;2023-10-13T16:08:05;26.40;68.50
49124;DHT22;48506;48.202;16.274;2023-10-13T16:10:37;26.20;69.00
49124;DHT22;48506;48.202;16.274;2023-10-13T16:13:04;26.10;69.40
49124;DHT22;48506;48.202;16.274;2023-10-13T16:15:36;26.00;69.80
49124;DHT22;48506;48.202;16.274;2023-10-13T16:18:06;25.80;69.40